CheckWX is a tool to help pilots better visualize weather data.  It is not intended as a substitute for an official pre-flight weather briefing.

21:37:13 UTC

KEZM METAR
Heart of Georgia Regional Airport
Eastman, Georgia, USA
Current

22 mins ago

KEZM 232115Z AUTO 10003KT 10SM SCT080 34/18 A3018 RMK AO2 T03380177
Observed
May-23 @ 21:15 UTC
Wind
  • 100° at 3 KTS
Visibility
10 SM
Flight Rules
VFR
Cloud Levels
  • Scattered at 8,000' AGL
Temperature
34°C / 93°F
Dewpoint
18°C / 64°F
Humidity
39%
Altimeter
30.18" Hg
Pressure
1022.02 hPa
Previous

42 mins ago

KEZM 232055Z AUTO 12007KT 10SM SCT080 34/19 A3018 RMK AO2 T03380189
Observed
May-23 @ 20:55 UTC
Wind
  • 120° at 7 KTS
Visibility
10 SM
Flight Rules
VFR
Cloud Levels
  • Scattered at 8,000' AGL
Temperature
34°C / 93°F
Dewpoint
19°C / 66°F
Heat Index
36°C / 96°F
Humidity
41%
Altimeter
30.18" Hg
Pressure
1022.02 hPa
Previous

1 hour ago

KEZM 232035Z AUTO 07003KT 10SM SCT060 33/18 A3019 RMK AO2 T03280184
Observed
May-23 @ 20:35 UTC
Wind
  • 070° at 3 KTS
Visibility
10 SM
Flight Rules
VFR
Cloud Levels
  • Scattered at 6,000' AGL
Temperature
33°C / 91°F
Dewpoint
18°C / 64°F
Heat Index
34°C / 93°F
Humidity
41%
Altimeter
30.19" Hg
Pressure
1022.32 hPa